Terminal Aerodrome Forecast
Issued by NWS

Home | Current Version | Previous Version | Text Only | Print | Product List | Glossary On
Versions: 1 2 3 4 5 6 7 8 9 10 11 12 13
000
FTUS42 TJSJ 281124
TAFJPS
TAF
TJPS 281124Z 2812/2912 05005KT P6SM SCT060
     FM281300 13010KT P6SM FEW030 SCT060
     FM281630 13010KT P6SM VCTS SCT025CB BKN050
     FM282300 05005KT P6SM FEW030 SCT060
      AMD NOT SKED TIL 290300=

USA.gov is the U.S. government's official web portal to all federal, state and local government web resources and services.